Time,TemperatureF,DewpointF,PressureIn,WindDirection,WindDirectionDegrees,WindSpeedMPH,WindSpeedGustMPH,Humidity,HourlyPrecipIn,Conditions,Clouds,dailyrainin,SoftwareType,DateUTC
2013-09-02 00:01:00,60.8,56.9,29.73,NW,317,1.0,2.0,87,0.00,,---,0.00,VWS V14.01,2013-09-02 04:01:00,
2013-09-02 00:02:00,60.9,57.0,29.73,NW,312,1.0,2.0,87,0.00,,---,0.00,VWS V14.01,2013-09-02 04:02:00,
2013-09-02 00:07:00,60.8,57.2,29.73,West,267,1.0,7.0,88,0.00,,---,0.00,VWS V14.01,2013-09-02 04:07:00,
2013-09-02 00:13:00,60.6,57.0,29.73,NNE,16,0.0,7.0,88,0.00,,---,0.00,VWS V14.01,2013-09-02 04:13:00,
2013-09-02 00:18:00,60.4,56.5,29.73,NNW,336,0.0,6.0,87,0.00,,---,0.00,VWS V14.01,2013-09-02 04:18:00,
2013-09-02 00:23:00,60.2,56.3,29.74,NNE,19,2.0,5.0,87,0.00,,---,0.00,VWS V14.01,2013-09-02 04:23:00,
2013-09-02 00:28:00,60.1,56.2,29.74,North,360,6.0,6.0,87,0.00,,---,0.00,VWS V14.01,2013-09-02 04:28:00,
2013-09-02 00:33:00,60.0,56.1,29.74,NW,317,2.0,9.0,87,0.00,,---,0.00,VWS V14.01,2013-09-02 04:33:00,
2013-09-02 00:38:00,59.8,55.9,29.74,NW,322,3.0,11.0,87,0.00,,---,0.00,VWS V14.01,2013-09-02 04:38:00,
2013-09-02 00:43:00,59.6,55.7,29.74,North,5,3.0,9.0,87,0.00,,---,0.00,VWS V14.01,2013-09-02 04:43:00,
2013-09-02 00:48:00,59.4,55.5,29.75,NW,311,2.0,3.0,87,0.00,,---,0.00,VWS V14.01,2013-09-02 04:48:00,
2013-09-02 00:53:00,59.4,55.8,29.75,NNE,28,0.0,3.0,88,0.00,,---,0.00,VWS V14.01,2013-09-02 04:53:00,
2013-09-02 00:58:00,59.0,55.1,29.75,NNE,27,0.0,9.0,87,0.00,,---,0.00,VWS V14.01,2013-09-02 04:58:00,
2013-09-02 01:03:00,59.0,55.1,29.75,North,355,0.0,6.0,87,0.00,,---,0.00,VWS V14.01,2013-09-02 05:03:00,
2013-09-02 01:08:00,59.0,55.5,29.75,WSW,258,0.0,4.0,88,0.00,,---,0.00,VWS V14.01,2013-09-02 05:08:00,
2013-09-02 01:13:00,59.0,55.5,29.75,North,355,0.0,3.0,88,0.00,,---,0.00,VWS V14.01,2013-09-02 05:13:00,
2013-09-02 01:18:00,59.0,55.5,29.75,West,261,3.0,9.0,88,0.00,,---,0.00,VWS V14.01,2013-09-02 05:18:00,
2013-09-02 01:23:00,59.0,55.5,29.75,WSW,252,2.0,4.0,88,0.00,,---,0.00,VWS V14.01,2013-09-02 05:23:00,
2013-09-02 01:28:00,59.0,55.5,29.75,WSW,256,1.0,5.0,88,0.00,,---,0.00,VWS V14.01,2013-09-02 05:28:00,
2013-09-02 01:33:00,59.0,55.5,29.75,WNW,288,2.0,7.0,88,0.00,,---,0.00,VWS V14.01,2013-09-02 05:33:00,
2013-09-02 01:38:00,59.0,55.5,29.75,WNW,298,1.0,8.0,88,0.00,,---,0.00,VWS V14.01,2013-09-02 05:38:00,
2013-09-02 01:43:00,58.9,55.7,29.75,WSW,244,0.0,6.0,89,0.00,,---,0.00,VWS V14.01,2013-09-02 05:43:00,
2013-09-02 01:48:00,58.8,55.3,29.75,NNW,327,0.0,5.0,88,0.00,,---,0.00,VWS V14.01,2013-09-02 05:48:00,
2013-09-02 01:53:00,58.7,55.2,29.75,North,5,4.0,4.0,88,0.00,,---,0.00,VWS V14.01,2013-09-02 05:53:00,
2013-09-02 01:58:00,58.4,54.9,29.75,NNW,344,7.0,12.0,88,0.00,,---,0.00,VWS V14.01,2013-09-02 05:58:00,
2013-09-02 02:03:00,58.1,54.6,29.75,NNW,341,5.0,6.0,88,0.00,,---,0.00,VWS V14.01,2013-09-02 06:03:00,
2013-09-02 02:08:00,57.8,54.0,29.75,WNW,301,3.0,8.0,87,0.00,,---,0.00,VWS V14.01,2013-09-02 06:08:00,
2013-09-02 02:13:00,57.6,53.8,29.75,NNW,328,0.0,12.0,87,0.00,,---,0.00,VWS V14.01,2013-09-02 06:13:00,
2013-09-02 02:18:00,57.5,53.7,29.75,North,355,0.0,8.0,87,0.00,,---,0.00,VWS V14.01,2013-09-02 06:18:00,
2013-09-02 02:23:00,57.4,53.9,29.75,WNW,302,2.0,6.0,88,0.00,,---,0.00,VWS V14.01,2013-09-02 06:23:00,
2013-09-02 02:28:00,57.4,53.9,29.76,West,261,5.0,13.0,88,0.00,,---,0.00,VWS V14.01,2013-09-02 06:28:00,
2013-09-02 02:33:00,57.3,53.8,29.75,WNW,290,4.0,10.0,88,0.00,,---,0.00,VWS V14.01,2013-09-02 06:33:00,
2013-09-02 02:38:00,57.3,53.8,29.75,West,272,5.0,5.0,88,0.00,,---,0.00,VWS V14.01,2013-09-02 06:38:00,
2013-09-02 02:43:00,57.2,53.7,29.75,North,9,0.0,6.0,88,0.00,,---,0.00,VWS V14.01,2013-09-02 06:43:00,
2013-09-02 02:48:00,57.2,53.7,29.75,WSW,250,5.0,5.0,88,0.00,,---,0.00,VWS V14.01,2013-09-02 06:48:00,
2013-09-02 02:53:00,57.1,53.9,29.75,West,263,3.0,6.0,89,0.00,,---,0.00,VWS V14.01,2013-09-02 06:53:00,
2013-09-02 02:58:00,57.1,53.9,29.75,West,264,3.0,5.0,89,0.00,,---,0.00,VWS V14.01,2013-09-02 06:58:00,
2013-09-02 03:03:00,57.1,53.9,29.75,West,264,6.0,10.0,89,0.00,,---,0.00,VWS V14.01,2013-09-02 07:03:00,
2013-09-02 03:08:00,57.0,53.5,29.75,West,263,6.0,14.0,88,0.00,,---,0.00,VWS V14.01,2013-09-02 07:08:00,
2013-09-02 03:13:00,56.9,53.4,29.75,West,265,5.0,9.0,88,0.00,,---,0.00,VWS V14.01,2013-09-02 07:13:00,
2013-09-02 03:18:00,56.8,53.3,29.76,West,269,9.0,13.0,88,0.00,,---,0.00,VWS V14.01,2013-09-02 07:18:00,
2013-09-02 03:23:00,56.7,53.2,29.75,WSW,257,3.0,9.0,88,0.00,,---,0.00,VWS V14.01,2013-09-02 07:23:00,
2013-09-02 03:28:00,56.7,53.2,29.76,WSW,250,5.0,13.0,88,0.00,,---,0.00,VWS V14.01,2013-09-02 07:28:00,
2013-09-02 03:33:00,56.6,52.8,29.76,WNW,288,7.0,11.0,87,0.00,,---,0.00,VWS V14.01,2013-09-02 07:33:00,
2013-09-02 03:38:00,56.4,52.9,29.76,WSW,248,5.0,10.0,88,0.00,,---,0.00,VWS V14.01,2013-09-02 07:38:00,
2013-09-02 03:43:00,56.4,52.9,29.76,SSW,207,1.0,11.0,88,0.00,,---,0.00,VWS V14.01,2013-09-02 07:43:00,
2013-09-02 03:48:00,56.3,52.8,29.76,West,267,9.0,11.0,88,0.00,,---,0.00,VWS V14.01,2013-09-02 07:48:00,
2013-09-02 03:53:00,56.2,52.4,29.76,West,281,3.0,10.0,87,0.00,,---,0.00,VWS V14.01,2013-09-02 07:53:00,
2013-09-02 03:58:00,56.2,52.4,29.77,WSW,241,6.0,11.0,87,0.00,,---,0.00,VWS V14.01,2013-09-02 07:58:00,
2013-09-02 04:04:00,56.2,52.4,29.77,West,267,5.0,9.0,87,0.00,,---,0.00,VWS V14.01,2013-09-02 08:04:00,
2013-09-02 04:09:00,56.2,52.4,29.77,West,262,2.0,7.0,87,0.00,,---,0.00,VWS V14.01,2013-09-02 08:09:00,
2013-09-02 04:14:00,56.1,52.3,29.77,WNW,284,3.0,12.0,87,0.00,,---,0.00,VWS V14.01,2013-09-02 08:14:00,
2013-09-02 04:19:00,56.1,52.3,29.78,NW,306,2.0,7.0,87,0.00,,---,0.00,VWS V14.01,2013-09-02 08:19:00,
2013-09-02 04:24:00,56.1,52.6,29.77,WNW,283,2.0,6.0,88,0.00,,---,0.00,VWS V14.01,2013-09-02 08:24:00,
2013-09-02 04:29:00,56.0,52.5,29.77,WSW,254,7.0,10.0,88,0.00,,---,0.00,VWS V14.01,2013-09-02 08:29:00,
2013-09-02 04:34:00,56.1,52.9,29.77,WNW,286,3.0,9.0,89,0.00,,---,0.00,VWS V14.01,2013-09-02 08:34:00,
2013-09-02 04:39:00,56.1,52.9,29.77,WSW,244,7.0,10.0,89,0.00,,---,0.00,VWS V14.01,2013-09-02 08:39:00,
2013-09-02 04:44:00,56.1,52.9,29.77,NNE,26,5.0,9.0,89,0.00,,---,0.00,VWS V14.01,2013-09-02 08:44:00,
2013-09-02 04:49:00,56.1,52.9,29.77,North,5,0.0,8.0,89,0.00,,---,0.00,VWS V14.01,2013-09-02 08:49:00,
2013-09-02 04:54:00,55.9,52.7,29.77,NNW,332,1.0,11.0,89,0.00,,---,0.00,VWS V14.01,2013-09-02 08:54:00,
2013-09-02 04:59:00,55.6,52.4,29.78,WSW,249,5.0,11.0,89,0.00,,---,0.00,VWS V14.01,2013-09-02 08:59:00,
2013-09-02 05:04:00,55.4,52.2,29.78,West,280,9.0,11.0,89,0.00,,---,0.00,VWS V14.01,2013-09-02 09:04:00,
2013-09-02 05:09:00,55.3,52.1,29.78,NNE,20,0.0,11.0,89,0.00,,---,0.00,VWS V14.01,2013-09-02 09:09:00,
2013-09-02 05:14:00,55.3,52.1,29.78,SW,230,2.0,5.0,89,0.00,,---,0.00,VWS V14.01,2013-09-02 09:14:00,
2013-09-02 05:19:00,55.2,52.0,29.78,West,269,1.0,12.0,89,0.00,,---,0.00,VWS V14.01,2013-09-02 09:19:00,
2013-09-02 05:24:00,55.2,52.0,29.78,NNE,13,10.0,13.0,89,0.00,,---,0.00,VWS V14.01,2013-09-02 09:24:00,
2013-09-02 05:29:00,55.1,51.9,29.78,West,271,5.0,9.0,89,0.00,,---,0.00,VWS V14.01,2013-09-02 09:29:00,
2013-09-02 05:34:00,55.0,51.8,29.78,West,260,11.0,11.0,89,0.00,,---,0.00,VWS V14.01,2013-09-02 09:34:00,
2013-09-02 05:39:00,54.9,51.7,29.79,West,261,3.0,11.0,89,0.00,,---,0.00,VWS V14.01,2013-09-02 09:39:00,
2013-09-02 05:44:00,54.9,51.7,29.79,WSW,240,6.0,10.0,89,0.00,,---,0.00,VWS V14.01,2013-09-02 09:44:00,
2013-09-02 05:49:00,54.8,51.6,29.79,NNW,329,6.0,15.0,89,0.00,,---,0.00,VWS V14.01,2013-09-02 09:49:00,
2013-09-02 05:54:00,54.9,51.4,29.79,NNW,337,3.0,7.0,88,0.00,,---,0.00,VWS V14.01,2013-09-02 09:54:00,
2013-09-02 05:59:00,54.8,51.0,29.79,NW,308,3.0,13.0,87,0.00,,---,0.00,VWS V14.01,2013-09-02 09:59:00,
2013-09-02 06:04:00,54.8,51.0,29.79,WSW,245,11.0,11.0,87,0.00,,---,0.00,VWS V14.01,2013-09-02 10:04:00,
2013-09-02 06:09:00,54.7,50.9,29.79,West,278,3.0,14.0,87,0.00,,---,0.00,VWS V14.01,2013-09-02 10:09:00,
2013-09-02 06:14:00,54.7,50.9,29.79,NNE,13,3.0,14.0,87,0.00,,---,0.00,VWS V14.01,2013-09-02 10:14:00,
2013-09-02 06:19:00,54.6,51.1,29.79,SW,232,3.0,11.0,88,0.00,,---,0.00,VWS V14.01,2013-09-02 10:19:00,
2013-09-02 06:24:00,54.5,51.0,29.79,West,260,10.0,12.0,88,0.00,,---,0.00,VWS V14.01,2013-09-02 10:24:00,
2013-09-02 06:29:00,54.5,51.0,29.79,West,279,7.0,10.0,88,0.00,,---,0.00,VWS V14.01,2013-09-02 10:29:00,
2013-09-02 06:34:00,54.6,50.8,29.79,WSW,240,4.0,9.0,87,0.00,,---,0.00,VWS V14.01,2013-09-02 10:34:00,
2013-09-02 06:39:00,54.8,50.7,29.79,West,267,2.0,15.0,86,0.00,,---,0.00,VWS V14.01,2013-09-02 10:39:00,
2013-09-02 06:44:00,55.0,50.9,29.79,West,280,9.0,12.0,86,0.00,,---,0.00,VWS V14.01,2013-09-02 10:44:00,
2013-09-02 06:49:00,55.0,50.9,29.79,West,262,6.0,11.0,86,0.00,,---,0.00,VWS V14.01,2013-09-02 10:49:00,
2013-09-02 06:54:00,55.0,50.9,29.79,NNW,347,2.0,10.0,86,0.00,,---,0.00,VWS V14.01,2013-09-02 10:54:00,
2013-09-02 06:59:00,55.0,50.6,29.79,WSW,255,4.0,12.0,85,0.00,,---,0.00,VWS V14.01,2013-09-02 10:59:00,
2013-09-02 07:04:00,55.1,50.7,29.80,WNW,288,10.0,12.0,85,0.00,,---,0.00,VWS V14.01,2013-09-02 11:04:00,
2013-09-02 07:09:00,55.0,50.9,29.80,WSW,242,10.0,15.0,86,0.00,,---,0.00,VWS V14.01,2013-09-02 11:09:00,
2013-09-02 07:14:00,54.8,51.0,29.80,WSW,253,10.0,11.0,87,0.00,,---,0.00,VWS V14.01,2013-09-02 11:14:00,
2013-09-02 07:19:00,54.5,51.0,29.80,NW,309,3.0,14.0,88,0.00,,---,0.00,VWS V14.01,2013-09-02 11:19:00,
2013-09-02 07:24:00,54.4,50.9,29.80,West,260,13.0,13.0,88,0.00,,---,0.00,VWS V14.01,2013-09-02 11:24:00,
2013-09-02 07:29:00,54.1,50.9,29.80,West,259,9.0,18.0,89,0.00,,---,0.00,VWS V14.01,2013-09-02 11:29:00,
2013-09-02 07:34:00,54.1,50.9,29.80,West,279,7.0,13.0,89,0.01,,---,0.01,VWS V14.01,2013-09-02 11:34:00,
2013-09-02 07:39:00,54.1,50.9,29.80,West,269,4.0,14.0,89,0.01,,---,0.01,VWS V14.01,2013-09-02 11:39:00,
2013-09-02 07:44:00,53.9,50.7,29.80,WNW,288,10.0,17.0,89,0.01,,---,0.01,VWS V14.01,2013-09-02 11:44:00,
2013-09-02 07:49:00,53.9,50.7,29.80,WSW,256,6.0,13.0,89,0.01,,---,0.01,VWS V14.01,2013-09-02 11:49:00,
2013-09-02 07:54:00,54.0,50.8,29.80,WSW,241,9.0,18.0,89,0.01,,---,0.01,VWS V14.01,2013-09-02 11:54:00,
2013-09-02 08:00:00,54.2,51.0,29.80,NW,313,2.0,15.0,89,0.01,,---,0.01,VWS V14.01,2013-09-02 12:00:00,
2013-09-02 08:05:00,54.3,50.8,29.81,NW,313,3.0,7.0,88,0.01,,---,0.01,VWS V14.01,2013-09-02 12:05:00,
2013-09-02 08:10:00,54.4,50.9,29.80,WSW,244,2.0,11.0,88,0.01,,---,0.01,VWS V14.01,2013-09-02 12:10:00,
2013-09-02 08:15:00,54.5,51.0,29.81,WSW,249,12.0,12.0,88,0.01,,---,0.01,VWS V14.01,2013-09-02 12:15:00,
2013-09-02 08:20:00,54.7,50.9,29.81,West,269,10.0,16.0,87,0.01,,---,0.01,VWS V14.01,2013-09-02 12:20:00,
2013-09-02 08:25:00,54.8,51.0,29.81,North,360,12.0,15.0,87,0.01,,---,0.01,VWS V14.01,2013-09-02 12:25:00,
2013-09-02 08:30:00,55.0,51.2,29.80,West,267,14.0,21.0,87,0.01,,---,0.01,VWS V14.01,2013-09-02 12:30:00,
2013-09-02 08:35:00,55.1,51.0,29.81,West,268,11.0,21.0,86,0.01,,---,0.01,VWS V14.01,2013-09-02 12:35:00,
2013-09-02 08:40:00,55.1,51.0,29.81,West,271,2.0,15.0,86,0.00,,---,0.01,VWS V14.01,2013-09-02 12:40:00,
2013-09-02 08:45:00,55.0,51.2,29.81,West,271,8.0,15.0,87,0.00,,---,0.01,VWS V14.01,2013-09-02 12:45:00,
2013-09-02 08:50:00,55.0,50.9,29.81,WSW,243,8.0,16.0,86,0.00,,---,0.01,VWS V14.01,2013-09-02 12:50:00,
2013-09-02 08:55:00,55.0,50.9,29.81,WNW,294,6.0,11.0,86,0.00,,---,0.01,VWS V14.01,2013-09-02 12:55:00,
2013-09-02 09:00:00,55.0,51.2,29.81,WNW,286,7.0,10.0,87,0.00,,---,0.01,VWS V14.01,2013-09-02 13:00:00,
2013-09-02 09:05:00,55.0,51.2,29.82,NW,305,5.0,11.0,87,0.00,,---,0.01,VWS V14.01,2013-09-02 13:05:00,
2013-09-02 09:10:00,54.9,51.4,29.82,WSW,254,6.0,21.0,88,0.00,,---,0.01,VWS V14.01,2013-09-02 13:10:00,
2013-09-02 09:15:00,54.6,51.1,29.82,NW,318,5.0,19.0,88,0.00,,---,0.01,VWS V14.01,2013-09-02 13:15:00,
2013-09-02 09:20:00,54.4,51.2,29.82,West,261,13.0,15.0,89,0.00,,---,0.01,VWS V14.01,2013-09-02 13:20:00,
2013-09-02 09:25:00,54.4,50.9,29.82,WSW,250,8.0,16.0,88,0.00,,---,0.01,VWS V14.01,2013-09-02 13:25:00,
2013-09-02 09:30:00,54.5,51.0,29.82,West,271,9.0,13.0,88,0.00,,---,0.01,VWS V14.01,2013-09-02 13:30:00,
2013-09-02 09:35:00,54.8,51.0,29.82,NW,317,7.0,17.0,87,0.00,,---,0.01,VWS V14.01,2013-09-02 13:35:00,
2013-09-02 09:40:00,55.0,50.9,29.82,WSW,250,6.0,16.0,86,0.00,,---,0.01,VWS V14.01,2013-09-02 13:40:00,
2013-09-02 09:45:00,55.1,51.0,29.82,West,273,4.0,13.0,86,0.00,,---,0.01,VWS V14.01,2013-09-02 13:45:00,
2013-09-02 09:50:00,55.3,51.2,29.82,WSW,250,12.0,15.0,86,0.00,,---,0.01,VWS V14.01,2013-09-02 13:50:00,
2013-09-02 09:55:00,55.2,51.1,29.83,WNW,282,13.0,18.0,86,0.00,,---,0.01,VWS V14.01,2013-09-02 13:55:00,
2013-09-02 10:00:00,55.1,51.0,29.83,ENE,58,2.0,17.0,86,0.00,,---,0.01,VWS V14.01,2013-09-02 14:00:00,
2013-09-02 10:05:00,55.0,51.2,29.83,West,279,9.0,14.0,87,0.00,,---,0.01,VWS V14.01,2013-09-02 14:05:00,
2013-09-02 10:10:00,55.0,51.2,29.83,WSW,256,10.0,12.0,87,0.00,,---,0.01,VWS V14.01,2013-09-02 14:10:00,
2013-09-02 10:15:00,54.9,51.1,29.83,WNW,282,6.0,18.0,87,0.00,,---,0.01,VWS V14.01,2013-09-02 14:15:00,
2013-09-02 10:20:00,55.0,51.5,29.83,West,281,9.0,13.0,88,0.00,,---,0.01,VWS V14.01,2013-09-02 14:20:00,
2013-09-02 10:25:00,55.1,51.6,29.84,WNW,284,6.0,13.0,88,0.00,,---,0.01,VWS V14.01,2013-09-02 14:25:00,
2013-09-02 10:30:00,55.0,51.5,29.84,WSW,241,8.0,8.0,88,0.00,,---,0.01,VWS V14.01,2013-09-02 14:30:00,
2013-09-02 10:35:00,55.0,51.5,29.84,West,265,5.0,5.0,88,0.00,,---,0.01,VWS V14.01,2013-09-02 14:35:00,
2013-09-02 10:40:00,54.9,51.4,29.84,WNW,299,10.0,16.0,88,0.00,,---,0.01,VWS V14.01,2013-09-02 14:40:00,
2013-09-02 10:45:00,55.0,51.8,29.84,WNW,286,6.0,15.0,89,0.00,,---,0.01,VWS V14.01,2013-09-02 14:45:00,
2013-09-02 10:50:00,54.9,51.4,29.84,West,275,5.0,6.0,88,0.00,,---,0.01,VWS V14.01,2013-09-02 14:50:00,
2013-09-02 10:55:00,55.0,51.5,29.84,West,281,2.0,9.0,88,0.00,,---,0.01,VWS V14.01,2013-09-02 14:55:00,
2013-09-02 11:00:00,55.1,51.3,29.84,West,279,11.0,11.0,87,0.00,,---,0.01,VWS V14.01,2013-09-02 15:00:00,
2013-09-02 11:05:00,55.3,51.5,29.84,West,269,11.0,11.0,87,0.00,,---,0.01,VWS V14.01,2013-09-02 15:05:00,
2013-09-02 11:10:00,55.3,51.5,29.84,WNW,283,10.0,10.0,87,0.00,,---,0.01,VWS V14.01,2013-09-02 15:10:00,
2013-09-02 11:15:00,55.4,51.6,29.84,WSW,238,10.0,10.0,87,0.00,,---,0.01,VWS V14.01,2013-09-02 15:15:00,
2013-09-02 11:20:00,55.4,51.6,29.84,NW,306,14.0,16.0,87,0.00,,---,0.01,VWS V14.01,2013-09-02 15:20:00,
2013-09-02 11:25:00,55.7,51.9,29.84,West,259,10.0,10.0,87,0.00,,---,0.01,VWS V14.01,2013-09-02 15:25:00,
2013-09-02 11:30:00,55.7,51.6,29.84,West,268,6.0,10.0,86,0.00,,---,0.01,VWS V14.01,2013-09-02 15:30:00,
2013-09-02 11:35:00,55.9,51.8,29.84,WSW,244,6.0,6.0,86,0.00,,---,0.01,VWS V14.01,2013-09-02 15:35:00,
2013-09-02 11:40:00,56.1,51.7,29.84,West,274,10.0,10.0,85,0.00,,---,0.01,VWS V14.01,2013-09-02 15:40:00,
2013-09-02 11:45:00,56.3,51.9,29.84,WNW,288,7.0,16.0,85,0.00,,---,0.01,VWS V14.01,2013-09-02 15:45:00,
2013-09-02 11:50:00,56.3,51.9,29.85,West,269,12.0,12.0,85,0.00,,---,0.01,VWS V14.01,2013-09-02 15:50:00,
2013-09-02 11:55:00,56.3,51.9,29.85,ENE,57,6.0,13.0,85,0.00,,---,0.01,VWS V14.01,2013-09-02 15:55:00,
2013-09-02 12:00:00,56.3,51.5,29.85,West,261,14.0,14.0,84,0.00,,---,0.01,VWS V14.01,2013-09-02 16:00:00,
2013-09-02 12:05:00,56.3,51.5,29.85,WSW,257,7.0,11.0,84,0.00,,---,0.01,VWS V14.01,2013-09-02 16:05:00,
2013-09-02 12:10:00,56.3,51.5,29.84,WSW,250,6.0,8.0,84,0.00,,---,0.01,VWS V14.01,2013-09-02 16:10:00,
2013-09-02 12:15:00,56.4,51.6,29.84,WSW,250,9.0,10.0,84,0.00,,---,0.01,VWS V14.01,2013-09-02 16:15:00,
2013-09-02 12:20:00,56.4,51.6,29.84,WNW,296,5.0,11.0,84,0.00,,---,0.01,VWS V14.01,2013-09-02 16:20:00,
2013-09-02 12:25:00,56.5,51.7,29.84,WNW,287,6.0,11.0,84,0.00,,---,0.01,VWS V14.01,2013-09-02 16:25:00,
2013-09-02 12:30:00,56.5,51.4,29.84,West,281,12.0,13.0,83,0.00,,---,0.01,VWS V14.01,2013-09-02 16:30:00,
2013-09-02 12:35:00,56.4,51.3,29.85,West,261,7.0,14.0,83,0.00,,---,0.01,VWS V14.01,2013-09-02 16:35:00,
2013-09-02 12:41:00,56.6,51.5,29.84,WSW,252,12.0,15.0,83,0.00,,---,0.01,VWS V14.01,2013-09-02 16:41:00,
2013-09-02 12:46:00,56.9,51.8,29.85,NNW,348,4.0,12.0,83,0.00,,---,0.01,VWS V14.01,2013-09-02 16:46:00,
2013-09-02 12:51:00,57.1,51.7,29.84,WNW,300,4.0,11.0,82,0.00,,---,0.01,VWS V14.01,2013-09-02 16:51:00,
2013-09-02 12:56:00,57.2,51.4,29.84,WNW,290,11.0,14.0,81,0.00,,---,0.01,VWS V14.01,2013-09-02 16:56:00,
2013-09-02 13:01:00,57.0,51.6,29.85,West,262,11.0,11.0,82,0.00,,---,0.01,VWS V14.01,2013-09-02 17:01:00,
2013-09-02 13:06:00,57.0,51.6,29.84,WNW,288,6.0,13.0,82,0.00,,---,0.01,VWS V14.01,2013-09-02 17:06:00,
2013-09-02 13:11:00,57.1,51.7,29.85,WSW,246,10.0,13.0,82,0.00,,---,0.01,VWS V14.01,2013-09-02 17:11:00,
2013-09-02 13:16:00,57.1,51.7,29.85,WSW,245,15.0,18.0,82,0.00,,---,0.01,VWS V14.01,2013-09-02 17:16:00,
2013-09-02 13:21:00,57.1,52.0,29.85,SW,217,10.0,12.0,83,0.00,,---,0.01,VWS V14.01,2013-09-02 17:21:00,
2013-09-02 13:26:00,57.1,52.0,29.85,West,270,14.0,22.0,83,0.00,,---,0.01,VWS V14.01,2013-09-02 17:26:00,
2013-09-02 13:31:00,57.3,52.2,29.85,West,261,11.0,12.0,83,0.00,,---,0.01,VWS V14.01,2013-09-02 17:31:00,
2013-09-02 13:36:00,57.3,52.2,29.85,WSW,250,14.0,18.0,83,0.00,,---,0.01,VWS V14.01,2013-09-02 17:36:00,
2013-09-02 13:41:00,57.3,52.2,29.85,WNW,284,10.0,13.0,83,0.00,,---,0.01,VWS V14.01,2013-09-02 17:41:00,
2013-09-02 13:46:00,57.4,52.9,29.85,West,276,9.0,16.0,85,0.00,,---,0.01,VWS V14.01,2013-09-02 17:46:00,
2013-09-02 13:51:00,57.2,52.7,29.85,West,268,13.0,14.0,85,0.00,,---,0.01,VWS V14.01,2013-09-02 17:51:00,
2013-09-02 13:56:00,56.9,52.8,29.85,West,260,13.0,13.0,86,0.00,,---,0.01,VWS V14.01,2013-09-02 17:56:00,
2013-09-02 14:01:00,56.5,52.7,29.85,WNW,288,13.0,17.0,87,0.00,,---,0.01,VWS V14.01,2013-09-02 18:01:00,
2013-09-02 14:06:00,56.0,52.8,29.85,WSW,250,10.0,15.0,89,0.00,,---,0.01,VWS V14.01,2013-09-02 18:06:00,
2013-09-02 14:11:00,55.7,52.5,29.85,West,278,13.0,17.0,89,0.00,,---,0.01,VWS V14.01,2013-09-02 18:11:00,
2013-09-02 14:16:00,55.9,52.7,29.86,WSW,245,12.0,15.0,89,0.00,,---,0.01,VWS V14.01,2013-09-02 18:16:00,
2013-09-02 14:21:00,56.1,52.9,29.86,West,275,10.0,14.0,89,0.00,,---,0.01,VWS V14.01,2013-09-02 18:21:00,
2013-09-02 14:26:00,56.4,52.9,29.86,West,275,6.0,12.0,88,0.00,,---,0.01,VWS V14.01,2013-09-02 18:26:00,
2013-09-02 14:31:00,56.6,52.8,29.86,West,279,11.0,14.0,87,0.00,,---,0.01,VWS V14.01,2013-09-02 18:31:00,
2013-09-02 14:36:00,56.8,52.7,29.86,NE,36,0.0,13.0,86,0.00,,---,0.01,VWS V14.01,2013-09-02 18:36:00,
2013-09-02 14:41:00,57.2,53.1,29.86,WSW,252,9.0,10.0,86,0.00,,---,0.01,VWS V14.01,2013-09-02 18:41:00,
2013-09-02 14:46:00,57.2,53.1,29.86,West,260,12.0,16.0,86,0.01,,---,0.02,VWS V14.01,2013-09-02 18:46:00,
2013-09-02 14:51:00,56.7,52.9,29.85,WNW,298,10.0,15.0,87,0.01,,---,0.02,VWS V14.01,2013-09-02 18:51:00,
2013-09-02 14:56:00,56.6,53.1,29.85,WNW,284,14.0,19.0,88,0.01,,---,0.02,VWS V14.01,2013-09-02 18:56:00,
2013-09-02 15:01:00,56.6,53.1,29.85,WSW,244,9.0,15.0,88,0.01,,---,0.02,VWS V14.01,2013-09-02 19:01:00,
2013-09-02 15:06:00,56.8,53.3,29.85,WNW,291,7.0,14.0,88,0.01,,---,0.02,VWS V14.01,2013-09-02 19:06:00,
2013-09-02 15:11:00,57.0,53.2,29.85,WNW,285,11.0,15.0,87,0.01,,---,0.02,VWS V14.01,2013-09-02 19:11:00,
2013-09-02 15:16:00,57.1,53.0,29.86,North,5,15.0,15.0,86,0.01,,---,0.02,VWS V14.01,2013-09-02 19:16:00,
2013-09-02 15:21:00,57.1,53.3,29.85,West,271,7.0,15.0,87,0.01,,---,0.02,VWS V14.01,2013-09-02 19:21:00,
2013-09-02 15:26:00,57.1,53.0,29.85,West,280,5.0,21.0,86,0.01,,---,0.02,VWS V14.01,2013-09-02 19:26:00,
2013-09-02 15:31:00,57.0,52.9,29.85,WSW,256,9.0,12.0,86,0.01,,---,0.02,VWS V14.01,2013-09-02 19:31:00,
2013-09-02 15:36:00,56.9,52.8,29.85,WSW,257,12.0,15.0,86,0.01,,---,0.02,VWS V14.01,2013-09-02 19:36:00,
2013-09-02 15:41:00,56.8,53.0,29.85,WSW,248,13.0,13.0,87,0.01,,---,0.02,VWS V14.01,2013-09-02 19:41:00,
2013-09-02 15:46:00,56.8,53.0,29.85,WSW,256,10.0,13.0,87,0.01,,---,0.02,VWS V14.01,2013-09-02 19:46:00,
2013-09-02 15:51:00,56.9,53.1,29.85,West,269,14.0,17.0,87,0.00,,---,0.02,VWS V14.01,2013-09-02 19:51:00,
2013-09-02 15:56:00,56.7,53.2,29.85,WSW,252,9.0,15.0,88,0.00,,---,0.02,VWS V14.01,2013-09-02 19:56:00,
2013-09-02 16:01:00,56.2,53.0,29.85,WSW,256,7.0,14.0,89,0.01,,---,0.03,VWS V14.01,2013-09-02 20:01:00,
2013-09-02 16:06:00,56.0,52.8,29.86,WNW,295,4.0,9.0,89,0.01,,---,0.03,VWS V14.01,2013-09-02 20:06:00,
2013-09-02 16:12:00,56.0,53.1,29.86,West,279,6.0,15.0,90,0.01,,---,0.03,VWS V14.01,2013-09-02 20:12:00,
2013-09-02 16:17:00,56.2,53.3,29.86,WSW,257,10.0,11.0,90,0.01,,---,0.03,VWS V14.01,2013-09-02 20:17:00,
2013-09-02 16:22:00,56.3,53.4,29.86,West,260,9.0,12.0,90,0.01,,---,0.03,VWS V14.01,2013-09-02 20:22:00,
2013-09-02 16:27:00,56.4,53.5,29.86,West,279,6.0,12.0,90,0.01,,---,0.03,VWS V14.01,2013-09-02 20:27:00,
2013-09-02 16:32:00,56.5,53.3,29.86,SW,233,3.0,8.0,89,0.01,,---,0.03,VWS V14.01,2013-09-02 20:32:00,
2013-09-02 16:37:00,56.5,53.0,29.86,WSW,256,10.0,11.0,88,0.01,,---,0.03,VWS V14.01,2013-09-02 20:37:00,
2013-09-02 16:42:00,56.5,53.0,29.86,West,275,13.0,15.0,88,0.01,,---,0.03,VWS V14.01,2013-09-02 20:42:00,
2013-09-02 16:47:00,56.4,52.9,29.86,SW,236,5.0,11.0,88,0.01,,---,0.03,VWS V14.01,2013-09-02 20:47:00,
2013-09-02 16:52:00,56.4,52.6,29.86,West,273,10.0,14.0,87,0.01,,---,0.03,VWS V14.01,2013-09-02 20:52:00,
2013-09-02 16:57:00,56.4,52.6,29.86,West,265,6.0,14.0,87,0.01,,---,0.03,VWS V14.01,2013-09-02 20:57:00,
2013-09-02 17:02:00,56.5,52.7,29.86,WSW,254,11.0,11.0,87,0.01,,---,0.03,VWS V14.01,2013-09-02 21:02:00,
2013-09-02 17:07:00,56.5,52.4,29.87,WSW,249,9.0,13.0,86,0.00,,---,0.03,VWS V14.01,2013-09-02 21:07:00,
2013-09-02 17:12:00,56.6,52.5,29.87,WSW,254,4.0,7.0,86,0.00,,---,0.03,VWS V14.01,2013-09-02 21:12:00,
2013-09-02 17:17:00,56.6,52.5,29.87,WNW,292,9.0,12.0,86,0.00,,---,0.03,VWS V14.01,2013-09-02 21:17:00,
2013-09-02 17:22:00,56.6,52.2,29.87,NW,308,11.0,14.0,85,0.00,,---,0.03,VWS V14.01,2013-09-02 21:22:00,
2013-09-02 17:27:00,56.6,52.2,29.87,WSW,254,9.0,10.0,85,0.00,,---,0.03,VWS V14.01,2013-09-02 21:27:00,
2013-09-02 17:32:00,56.7,52.2,29.87,WSW,242,4.0,10.0,85,0.00,,---,0.03,VWS V14.01,2013-09-02 21:32:00,
2013-09-02 17:37:00,56.7,52.2,29.87,WSW,250,10.0,11.0,85,0.00,,---,0.03,VWS V14.01,2013-09-02 21:37:00,
2013-09-02 17:42:00,56.7,51.9,29.87,WSW,252,6.0,12.0,84,0.00,,---,0.03,VWS V14.01,2013-09-02 21:42:00,
2013-09-02 17:47:00,56.7,52.2,29.87,WSW,240,2.0,13.0,85,0.00,,---,0.03,VWS V14.01,2013-09-02 21:47:00,
2013-09-02 17:52:00,56.8,52.3,29.87,West,259,11.0,13.0,85,0.00,,---,0.03,VWS V14.01,2013-09-02 21:52:00,
2013-09-02 17:57:00,56.6,52.2,29.87,WNW,283,7.0,13.0,85,0.00,,---,0.03,VWS V14.01,2013-09-02 21:57:00,
2013-09-02 18:02:00,56.6,52.2,29.88,ESE,111,3.0,10.0,85,0.00,,---,0.03,VWS V14.01,2013-09-02 22:02:00,
2013-09-02 18:07:00,56.6,51.8,29.88,WNW,288,3.0,12.0,84,0.00,,---,0.03,VWS V14.01,2013-09-02 22:07:00,
2013-09-02 18:12:00,56.6,51.8,29.88,West,273,6.0,16.0,84,0.00,,---,0.03,VWS V14.01,2013-09-02 22:12:00,
2013-09-02 18:17:00,56.6,51.8,29.88,West,269,7.0,13.0,84,0.00,,---,0.03,VWS V14.01,2013-09-02 22:17:00,
2013-09-02 18:22:00,56.5,51.4,29.88,WNW,297,6.0,12.0,83,0.00,,---,0.03,VWS V14.01,2013-09-02 22:22:00,
2013-09-02 18:27:00,56.4,51.3,29.88,WNW,303,6.0,11.0,83,0.00,,---,0.03,VWS V14.01,2013-09-02 22:27:00,
2013-09-02 18:32:00,56.4,51.3,29.88,NNW,327,2.0,7.0,83,0.00,,---,0.03,VWS V14.01,2013-09-02 22:32:00,
2013-09-02 18:37:00,56.4,51.3,29.88,WSW,244,5.0,12.0,83,0.00,,---,0.03,VWS V14.01,2013-09-02 22:37:00,
2013-09-02 18:42:00,56.3,50.9,29.88,West,274,9.0,13.0,82,0.00,,---,0.03,VWS V14.01,2013-09-02 22:42:00,
2013-09-02 18:47:00,56.3,51.2,29.88,NW,313,6.0,10.0,83,0.00,,---,0.03,VWS V14.01,2013-09-02 22:47:00,
2013-09-02 18:52:00,56.2,50.8,29.88,West,281,5.0,9.0,82,0.00,,---,0.03,VWS V14.01,2013-09-02 22:52:00,
2013-09-02 18:58:00,56.2,50.8,29.88,NW,304,4.0,13.0,82,0.00,,---,0.03,VWS V14.01,2013-09-02 22:58:00,
2013-09-02 19:03:00,56.2,50.8,29.88,WNW,298,4.0,11.0,82,0.00,,---,0.03,VWS V14.01,2013-09-02 23:03:00,
2013-09-02 19:08:00,56.2,50.8,29.88,NW,320,3.0,10.0,82,0.00,,---,0.03,VWS V14.01,2013-09-02 23:08:00,
2013-09-02 19:13:00,56.2,50.8,29.88,WSW,248,4.0,11.0,82,0.00,,---,0.03,VWS V14.01,2013-09-02 23:13:00,
2013-09-02 19:18:00,56.2,50.8,29.88,SW,219,5.0,10.0,82,0.00,,---,0.03,VWS V14.01,2013-09-02 23:18:00,
2013-09-02 19:23:00,56.2,50.8,29.88,West,279,3.0,11.0,82,0.00,,---,0.03,VWS V14.01,2013-09-02 23:23:00,
2013-09-02 19:28:00,56.2,50.5,29.89,WNW,302,3.0,10.0,81,0.00,,---,0.03,VWS V14.01,2013-09-02 23:28:00,
2013-09-02 19:33:00,56.2,50.5,29.88,WSW,245,5.0,14.0,81,0.00,,---,0.03,VWS V14.01,2013-09-02 23:33:00,
2013-09-02 19:38:00,56.3,50.2,29.89,SW,223,4.0,12.0,80,0.00,,---,0.03,VWS V14.01,2013-09-02 23:38:00,
2013-09-02 19:43:00,56.3,50.2,29.89,WNW,286,1.0,10.0,80,0.00,,---,0.03,VWS V14.01,2013-09-02 23:43:00,
2013-09-02 19:48:00,56.4,50.0,29.89,WSW,257,5.0,11.0,79,0.00,,---,0.03,VWS V14.01,2013-09-02 23:48:00,
2013-09-02 19:53:00,56.5,50.1,29.89,North,5,4.0,9.0,79,0.00,,---,0.03,VWS V14.01,2013-09-02 23:53:00,
2013-09-02 19:58:00,56.5,49.7,29.88,West,273,5.0,13.0,78,0.00,,---,0.03,VWS V14.01,2013-09-02 23:58:00,
2013-09-02 20:03:00,56.5,49.7,29.88,North,9,6.0,17.0,78,0.00,,---,0.03,VWS V14.01,2013-09-03 00:03:00,
2013-09-02 20:08:00,56.6,49.8,29.88,WSW,244,2.0,11.0,78,0.00,,---,0.03,VWS V14.01,2013-09-03 00:08:00,
2013-09-02 20:13:00,56.5,50.1,29.88,NW,304,2.0,12.0,79,0.00,,---,0.03,VWS V14.01,2013-09-03 00:13:00,
2013-09-02 20:18:00,56.4,50.0,29.89,WSW,238,4.0,14.0,79,0.00,,---,0.03,VWS V14.01,2013-09-03 00:18:00,
2013-09-02 20:23:00,56.4,49.6,29.89,NW,310,0.0,11.0,78,0.00,,---,0.03,VWS V14.01,2013-09-03 00:23:00,
2013-09-02 20:28:00,56.6,50.2,29.89,East,88,3.0,9.0,79,0.00,,---,0.03,VWS V14.01,2013-09-03 00:28:00,
2013-09-02 20:33:00,56.6,50.2,29.88,SW,223,0.0,11.0,79,0.00,,---,0.03,VWS V14.01,2013-09-03 00:33:00,
2013-09-02 20:38:00,56.6,50.2,29.88,West,265,4.0,15.0,79,0.00,,---,0.03,VWS V14.01,2013-09-03 00:38:00,
2013-09-02 20:43:00,56.7,50.3,29.89,West,275,3.0,9.0,79,0.00,,---,0.03,VWS V14.01,2013-09-03 00:43:00,
2013-09-02 20:48:00,56.8,50.4,29.89,West,263,6.0,14.0,79,0.00,,---,0.03,VWS V14.01,2013-09-03 00:48:00,
2013-09-02 20:53:00,56.8,50.0,29.89,WNW,296,10.0,10.0,78,0.00,,---,0.03,VWS V14.01,2013-09-03 00:53:00,
2013-09-02 20:58:00,56.8,50.0,29.89,West,273,9.0,13.0,78,0.00,,---,0.03,VWS V14.01,2013-09-03 00:58:00,
2013-09-02 21:03:00,56.9,49.8,29.89,WNW,286,5.0,14.0,77,0.00,,---,0.03,VWS V14.01,2013-09-03 01:03:00,
2013-09-02 21:08:00,57.0,49.9,29.89,NNW,340,4.0,10.0,77,0.00,,---,0.03,VWS V14.01,2013-09-03 01:08:00,
2013-09-02 21:13:00,57.0,49.9,29.89,WSW,248,10.0,13.0,77,0.00,,---,0.03,VWS V14.01,2013-09-03 01:13:00,
2013-09-02 21:18:00,57.1,50.0,29.89,NE,36,3.0,12.0,77,0.00,,---,0.03,VWS V14.01,2013-09-03 01:18:00,
2013-09-02 21:23:00,57.1,49.6,29.89,West,277,5.0,16.0,76,0.00,,---,0.03,VWS V14.01,2013-09-03 01:23:00,
2013-09-02 21:28:00,57.2,50.1,29.89,SW,227,1.0,10.0,77,0.00,,---,0.03,VWS V14.01,2013-09-03 01:28:00,
2013-09-02 21:33:00,57.1,50.0,29.89,NNW,345,0.0,10.0,77,0.00,,---,0.03,VWS V14.01,2013-09-03 01:33:00,
2013-09-02 21:38:00,57.2,50.1,29.89,NW,306,7.0,10.0,77,0.00,,---,0.03,VWS V14.01,2013-09-03 01:38:00,
2013-09-02 21:43:00,57.3,50.2,29.89,WNW,285,2.0,10.0,77,0.00,,---,0.03,VWS V14.01,2013-09-03 01:43:00,
2013-09-02 21:48:00,57.3,50.5,29.89,North,5,3.0,6.0,78,0.00,,---,0.03,VWS V14.01,2013-09-03 01:48:00,
2013-09-02 21:53:00,57.3,50.2,29.89,West,271,0.0,10.0,77,0.00,,---,0.03,VWS V14.01,2013-09-03 01:53:00,
2013-09-02 21:58:00,57.3,50.2,29.88,WNW,291,8.0,13.0,77,0.00,,---,0.03,VWS V14.01,2013-09-03 01:58:00,
2013-09-02 22:03:00,57.4,49.9,29.88,WNW,291,3.0,10.0,76,0.00,,---,0.03,VWS V14.01,2013-09-03 02:03:00,
2013-09-02 22:09:00,57.4,50.3,29.88,West,265,5.0,10.0,77,0.00,,---,0.03,VWS V14.01,2013-09-03 02:09:00,
2013-09-02 22:14:00,57.5,50.4,29.89,NNW,328,7.0,11.0,77,0.00,,---,0.03,VWS V14.01,2013-09-03 02:14:00,
2013-09-02 22:19:00,57.6,50.1,29.89,SW,227,6.0,10.0,76,0.00,,---,0.03,VWS V14.01,2013-09-03 02:19:00,
2013-09-02 22:24:00,57.7,50.2,29.89,WSW,247,3.0,15.0,76,0.00,,---,0.03,VWS V14.01,2013-09-03 02:24:00,
2013-09-02 22:29:00,57.7,50.2,29.89,West,277,15.0,15.0,76,0.00,,---,0.03,VWS V14.01,2013-09-03 02:29:00,
2013-09-02 22:34:00,57.7,50.2,29.89,WSW,257,2.0,10.0,76,0.00,,---,0.03,VWS V14.01,2013-09-03 02:34:00,
2013-09-02 22:39:00,57.7,50.2,29.89,NW,309,3.0,13.0,76,0.00,,---,0.03,VWS V14.01,2013-09-03 02:39:00,
2013-09-02 22:44:00,57.8,50.3,29.89,WNW,288,7.0,14.0,76,0.00,,---,0.03,VWS V14.01,2013-09-03 02:44:00,
2013-09-02 22:49:00,58.0,50.5,29.89,West,271,3.0,12.0,76,0.00,,---,0.03,VWS V14.01,2013-09-03 02:49:00,
2013-09-02 22:54:00,58.1,50.2,29.89,NW,312,7.0,13.0,75,0.00,,---,0.03,VWS V14.01,2013-09-03 02:54:00,
2013-09-02 22:59:00,58.1,50.2,29.89,WSW,249,6.0,12.0,75,0.00,,---,0.03,VWS V14.01,2013-09-03 02:59:00,
2013-09-02 23:04:00,58.2,50.3,29.89,SW,236,4.0,12.0,75,0.00,,---,0.03,VWS V14.01,2013-09-03 03:04:00,
2013-09-02 23:09:00,58.2,50.7,29.89,West,277,2.0,14.0,76,0.00,,---,0.03,VWS V14.01,2013-09-03 03:09:00,
2013-09-02 23:14:00,58.2,50.7,29.89,NNE,19,4.0,11.0,76,0.00,,---,0.03,VWS V14.01,2013-09-03 03:14:00,
2013-09-02 23:19:00,58.2,50.7,29.89,West,259,10.0,10.0,76,0.00,,---,0.03,VWS V14.01,2013-09-03 03:19:00,
2013-09-02 23:24:00,58.2,51.0,29.89,NNE,27,3.0,13.0,77,0.00,,---,0.03,VWS V14.01,2013-09-03 03:24:00,
2013-09-02 23:29:00,58.2,51.0,29.89,WSW,246,10.0,14.0,77,0.00,,---,0.03,VWS V14.01,2013-09-03 03:29:00,
2013-09-02 23:34:00,58.2,51.0,29.89,NW,308,5.0,14.0,77,0.00,,---,0.03,VWS V14.01,2013-09-03 03:34:00,
2013-09-02 23:39:00,58.3,51.5,29.89,West,278,6.0,10.0,78,0.00,,---,0.03,VWS V14.01,2013-09-03 03:39:00,
2013-09-02 23:44:00,58.2,51.4,29.89,North,360,2.0,10.0,78,0.00,,---,0.03,VWS V14.01,2013-09-03 03:44:00,
2013-09-02 23:49:00,58.2,51.4,29.89,NNW,327,0.0,7.0,78,0.00,,---,0.03,VWS V14.01,2013-09-03 03:49:00,
2013-09-02 23:54:00,58.2,51.7,29.89,NW,314,1.0,10.0,79,0.00,,---,0.03,VWS V14.01,2013-09-03 03:54:00,
2013-09-02 23:59:00,58.2,51.7,29.89,NW,322,11.0,13.0,79,0.00,,---,0.03,VWS V14.01,2013-09-03 03:59:00,